Time;durP1;ratioP1;P1;durP2;ratioP2;P2;SDS_P1;SDS_P2;PMS_P1;PMS_P2;Temp;Humidity;BMP_temperature;BMP_pressure;BME280_temperature;BME280_humidity;BME280_pressure;Samples;Min_cycle;Max_cycle;Signal;HPM_P1;HPM_P2
2023/05/10 00:01:52;;;;;;;8.50;6.00;;;;;;;7.44;59.12;100314.30;134223;1298;22793;-74
2023/05/10 00:05:29;;;;;;;;;;;;;;;;;;;;;
2023/05/10 00:08:53;;;;;;;12.00;5.90;;;;;;;7.51;59.20;100309.47;134190;1298;22439;-74
2023/05/10 00:12:14;;;;;;;;;;;;;;;;;;;;;
2023/05/10 00:15:18;;;;;;;9.80;5.50;;;;;;;7.61;59.19;100295.61;134171;1298;23361;-74
2023/05/10 00:18:23;;;;;;;10.70;5.90;;;;;;;7.63;59.01;100296.31;134190;1297;22358;-73
2023/05/10 00:21:24;;;;;;;9.60;5.60;;;;;;;7.67;59.03;100296.20;134209;1302;22381;-74
2023/05/10 00:24:25;;;;;;;18.00;5.70;;;;;;;7.75;59.10;100296.80;134194;1298;22282;-74
2023/05/10 00:28:08;;;;;;;;;;;;;;;;;;;;;
2023/05/10 00:32:02;;;;;;;11.20;5.80;;;;;;;7.83;58.99;100293.08;134003;1297;23146;-74
2023/05/10 00:38:31;;;;;;;10.70;4.90;;;;;;;7.87;59.09;100289.91;134215;1298;22154;-74
2023/05/10 00:41:43;;;;;;;9.60;5.70;;;;;;;7.89;58.97;100287.91;134182;1298;22365;-74
2023/05/10 00:44:44;;;;;;;13.80;5.40;;;;;;;7.88;58.82;100290.00;133912;1298;22369;-73
2023/05/10 00:48:10;;;;;;;;;;;;;;;;;;;;;
2023/05/10 00:51:44;;;;;;;12.20;6.00;;;;;;;7.89;58.91;100284.98;134231;1297;22939;-74
2023/05/10 00:55:11;;;;;;;8.30;5.00;;;;;;;7.90;58.93;100282.96;134008;1303;22202;-74
2023/05/10 00:59:13;;;;;;;8.70;5.60;;;;;;;7.90;58.86;100284.50;134153;1298;23266;-74
2023/05/10 01:02:35;;;;;;;9.30;5.60;;;;;;;7.85;58.95;100281.95;134176;1298;22371;-74
2023/05/10 01:06:40;;;;;;;11.40;6.50;;;;;;;7.79;59.08;100280.98;134239;1298;22545;-74
2023/05/10 01:09:45;;;;;;;10.80;5.50;;;;;;;7.76;59.04;100281.41;134103;1302;22442;-74
2023/05/10 01:13:07;;;;;;;9.50;5.30;;;;;;;7.74;59.18;100278.48;134226;1305;23391;-74
2023/05/10 01:16:41;;;;;;;12.50;6.40;;;;;;;7.70;59.13;100276.00;134192;1299;22460;-74
2023/05/10 01:20:20;;;;;;;9.00;6.10;;;;;;;7.68;59.27;100274.28;134055;1298;22362;-74
2023/05/10 01:23:56;;;;;;;11.80;5.80;;;;;;;7.68;59.38;100273.95;134198;1298;22837;-73
2023/05/10 01:27:39;;;;;;;11.90;5.80;;;;;;;7.67;59.55;100275.92;134099;1298;22464;-74
2023/05/10 01:31:00;;;;;;;13.00;6.80;;;;;;;7.62;59.38;100273.41;134210;1298;22477;-74
2023/05/10 01:34:15;;;;;;;15.70;6.30;;;;;;;7.59;59.56;100274.20;134193;1291;22554;-74
2023/05/10 01:37:45;;;;;;;12.40;5.60;;;;;;;7.55;59.72;100269.27;134207;1297;22496;-73
2023/05/10 01:41:27;;;;;;;11.10;6.20;;;;;;;7.52;59.82;100273.23;134067;1298;22391;-74
2023/05/10 01:44:40;;;;;;;13.10;6.30;;;;;;;7.49;59.97;100275.30;134070;1305;22468;-74
2023/05/10 01:47:47;;;;;;;13.00;6.60;;;;;;;7.46;59.86;100275.27;134220;1297;22437;-73
2023/05/10 01:51:18;;;;;;;;;;;;;;;;;;;;;
2023/05/10 01:54:35;;;;;;;9.70;6.20;;;;;;;7.41;60.31;100273.08;134212;1301;23250;-74
2023/05/10 01:58:28;;;;;;;9.90;5.70;;;;;;;7.42;60.17;100276.36;133957;1301;23055;-74
2023/05/10 02:01:37;;;;;;;10.80;6.10;;;;;;;7.40;60.12;100273.19;133627;1297;23154;-73
2023/05/10 02:04:40;;;;;;;13.00;5.80;;;;;;;7.37;60.16;100269.45;134215;1297;22416;-74
2023/05/10 02:07:43;;;;;;;12.00;6.20;;;;;;;7.33;60.25;100273.77;134190;1293;22466;-73
2023/05/10 02:10:46;;;;;;;10.00;6.00;;;;;;;7.34;60.20;100261.09;134094;1298;22400;-74
2023/05/10 02:14:00;;;;;;;11.50;6.60;;;;;;;7.30;60.64;100263.52;134129;1298;22418;-74
2023/05/10 02:17:05;;;;;;;11.30;6.40;;;;;;;7.26;60.62;100262.48;133922;1305;22458;-73
2023/05/10 02:20:07;;;;;;;8.70;5.90;;;;;;;7.25;60.86;100263.30;134077;1300;23181;-74
2023/05/10 02:23:20;;;;;;;13.80;6.90;;;;;;;7.25;60.66;100262.05;134223;1298;22387;-74
2023/05/10 02:26:27;;;;;;;7.80;5.50;;;;;;;7.25;60.68;100260.89;134039;1305;23203;-73
2023/05/10 02:29:33;;;;;;;12.60;6.10;;;;;;;7.24;60.65;100260.44;134212;1298;22559;-75
2023/05/10 02:33:07;;;;;;;8.70;5.90;;;;;;;7.24;60.63;100257.92;134076;1301;22494;-73
2023/05/10 02:36:24;;;;;;;10.80;5.90;;;;;;;7.24;60.67;100260.45;134211;1298;22424;-74
2023/05/10 02:39:35;;;;;;;12.70;6.20;;;;;;;7.24;60.83;100258.28;134074;1298;22267;-74
2023/05/10 02:42:42;;;;;;;13.80;6.80;;;;;;;7.23;60.98;100263.11;134200;1297;22209;-74
2023/05/10 02:46:14;;;;;;;11.30;6.30;;;;;;;7.20;60.75;100260.05;134089;1299;22422;-75
2023/05/10 02:49:41;;;;;;;11.20;6.30;;;;;;;7.15;60.92;100260.13;134195;1297;23202;-74
2023/05/10 02:52:49;;;;;;;10.80;5.90;;;;;;;7.10;61.02;100259.52;134164;1298;22563;-74
2023/05/10 02:55:56;;;;;;;10.90;6.30;;;;;;;7.09;61.20;100258.79;134194;1299;22379;-74
2023/05/10 02:58:57;;;;;;;12.20;6.10;;;;;;;7.06;61.09;100263.11;134203;1298;22188;-74
2023/05/10 03:02:00;;;;;;;10.00;5.90;;;;;;;7.02;61.12;100269.66;134214;1297;22371;-74
2023/05/10 03:05:01;;;;;;;12.60;5.90;;;;;;;7.00;61.07;100268.23;134053;1298;22378;-73
2023/05/10 03:08:12;;;;;;;10.70;6.30;;;;;;;7.01;61.30;100269.36;134065;1297;22377;-74
2023/05/10 03:11:44;;;;;;;13.50;6.80;;;;;;;6.96;61.17;100268.41;134185;1298;22391;-74
2023/05/10 03:15:36;;;;;;;;;;;;;;;;;;;;;
2023/05/10 03:18:48;;;;;;;10.50;6.50;;;;;;;6.81;61.36;100267.34;134193;1298;22985;-73
2023/05/10 03:22:20;;;;;;;11.30;6.20;;;;;;;6.72;61.81;100265.80;134067;1298;22365;-74
2023/05/10 03:25:33;;;;;;;12.50;6.50;;;;;;;6.67;61.60;100266.64;134200;1305;22223;-73
2023/05/10 03:28:45;;;;;;;10.60;6.20;;;;;;;6.62;61.68;100266.68;134070;1301;22885;-73
2023/05/10 03:32:18;;;;;;;10.90;6.20;;;;;;;6.60;61.96;100266.23;133981;1297;22422;-73
2023/05/10 03:36:02;;;;;;;13.70;6.90;;;;;;;6.58;61.99;100264.27;134210;1297;22425;-74
2023/05/10 03:39:24;;;;;;;8.70;6.30;;;;;;;6.59;62.15;100262.79;134180;1298;23376;-74
2023/05/10 03:42:40;;;;;;;15.30;6.60;;;;;;;6.70;62.37;100259.52;134076;1298;22479;-74
2023/05/10 03:45:42;;;;;;;12.20;6.40;;;;;;;6.88;62.09;100255.25;134230;1298;22128;-73
2023/05/10 03:48:43;;;;;;;15.50;6.90;;;;;;;7.09;61.97;100250.15;134193;1301;22386;-74
2023/05/10 03:51:43;;;;;;;;;;;;;;;7.31;61.85;100250.95;134225;1305;22468;-74
2023/05/10 03:55:03;;;;;;;10.30;6.40;;;;;;;7.52;61.74;100250.00;134058;1297;22217;-74
2023/05/10 03:58:18;;;;;;;;;;;;;;;;;;;;;
2023/05/10 04:01:34;;;;;;;9.50;5.70;;;;;;;8.15;61.15;100246.11;133939;1297;22446;-74
2023/05/10 04:04:35;;;;;;;11.80;6.00;;;;;;;8.43;60.74;100245.63;134065;1297;22412;-73
2023/05/10 04:07:39;;;;;;;;;;;;;;;8.66;60.38;100242.13;134226;1297;22640;-74
2023/05/10 04:10:43;;;;;;;14.10;6.70;;;;;;;8.89;60.17;100241.23;134227;1297;23249;-74
2023/05/10 04:13:50;;;;;;;10.50;5.80;;;;;;;9.16;59.60;100244.36;134202;1305;22523;-74
2023/05/10 04:16:51;;;;;;;10.40;5.90;;;;;;;9.42;59.39;100245.64;134199;1297;22221;-74
2023/05/10 04:20:09;;;;;;;9.00;5.90;;;;;;;9.70;58.57;100242.11;134239;1297;22199;-74
2023/05/10 04:23:14;;;;;;;10.90;6.10;;;;;;;10.00;58.37;100243.57;134191;1302;22961;-74
2023/05/10 04:27:23;;;;;;;11.30;5.60;;;;;;;10.28;57.99;100241.50;134199;1297;22370;-74
2023/05/10 04:30:54;;;;;;;;;;;;;;;;;;;;;
2023/05/10 04:34:39;;;;;;;9.20;5.90;;;;;;;10.83;56.61;100240.42;134191;1297;22257;-74
2023/05/10 04:38:43;;;;;;;8.90;5.50;;;;;;;11.13;56.08;100235.77;134162;1297;22388;-75
2023/05/10 04:46:07;;;;;;;8.80;5.80;;;;;;;11.73;54.96;100233.02;134196;1297;23050;-79
2023/05/10 04:53:07;;;;;;;7.90;5.60;;;;;;;12.07;53.92;100235.40;134210;1297;22889;-81
2023/05/10 04:56:42;;;;;;;8.60;5.70;;;;;;;12.47;52.90;100233.93;134208;1297;22415;-76
2023/05/10 04:59:43;;;;;;;7.70;5.10;;;;;;;12.65;52.24;100229.77;134274;1297;22402;-78
2023/05/10 05:02:50;;;;;;;10.90;5.20;;;;;;;12.88;51.64;100230.73;134213;1297;23007;-67
2023/05/10 05:05:53;;;;;;;8.90;5.40;;;;;;;13.03;51.14;100230.61;134089;1299;23321;-76
2023/05/10 05:08:54;;;;;;;9.70;4.50;;;;;;;13.21;50.98;100229.09;134214;1291;22497;-76
2023/05/10 05:11:56;;;;;;;8.30;5.50;;;;;;;13.26;50.25;100228.69;134182;1297;22374;-74
2023/05/10 05:15:01;;;;;;;7.80;5.30;;;;;;;13.46;50.34;100228.42;134155;1297;23119;-72
2023/05/10 05:18:20;;;;;;;;;;;;;;;;;;;;;
2023/05/10 05:21:38;;;;;;;;;;;;;;;;;;;;;
2023/05/10 05:25:14;;;;;;;9.30;5.40;;;;;;;14.21;48.66;100228.13;134152;1297;23454;-76
2023/05/10 05:28:43;;;;;;;;;;;;;;;;;;;;;
2023/05/10 05:32:00;;;;;;;8.70;5.40;;;;;;;14.78;48.43;100231.36;134205;1297;23245;-76
2023/05/10 05:35:22;;;;;;;9.20;5.20;;;;;;;15.03;47.01;100229.11;134189;1297;22420;-79
2023/05/10 05:38:23;;;;;;;9.20;4.30;;;;;;;15.19;47.69;100226.85;134228;1297;23182;-76
2023/05/10 05:41:32;;;;;;;8.60;4.80;;;;;;;15.22;46.35;100223.50;134200;1297;22391;-77
2023/05/10 05:45:00;;;;;;;7.50;4.60;;;;;;;15.12;45.63;100226.95;134185;1298;22957;-76
2023/05/10 05:48:03;;;;;;;8.60;5.10;;;;;;;15.02;45.78;100225.40;134215;1297;23158;-77
2023/05/10 05:51:16;;;;;;;6.30;4.50;;;;;;;14.93;45.49;100224.84;134236;1297;22385;-76
2023/05/10 05:54:24;;;;;;;6.40;4.90;;;;;;;14.91;44.92;100226.83;134234;1297;22216;-76
2023/05/10 05:57:35;;;;;;;7.60;5.30;;;;;;;15.00;44.94;100226.30;134232;1297;22432;-75
2023/05/10 06:00:59;;;;;;;6.50;4.40;;;;;;;15.13;44.83;100227.04;134177;1298;23597;-75
2023/05/10 06:04:02;;;;;;;7.50;3.70;;;;;;;15.15;44.62;100227.48;134194;1297;23144;-74
2023/05/10 06:07:12;;;;;;;7.00;4.40;;;;;;;15.34;44.74;100232.35;134127;1299;23006;-75
2023/05/10 06:10:54;;;;;;;8.30;4.50;;;;;;;15.43;44.26;100234.09;133934;1304;22443;-76
2023/05/10 06:17:51;;;;;;;11.50;3.80;;;;;;;15.57;43.99;100235.62;134103;1297;23863;-75
2023/05/10 06:21:20;;;;;;;;;;;;;;;;;;;;;
2023/05/10 06:24:21;;;;;;;6.80;3.80;;;;;;;15.79;43.91;100232.23;134249;1297;22249;-74
2023/05/10 06:27:22;;;;;;;5.40;4.00;;;;;;;16.00;43.77;100236.20;134241;1297;22449;-75
2023/05/10 06:30:28;;;;;;;6.10;4.20;;;;;;;16.10;43.26;100234.19;134245;1297;22864;-75
2023/05/10 06:33:29;;;;;;;6.30;4.50;;;;;;;16.12;42.83;100235.23;134088;1298;22352;-74
2023/05/10 06:36:53;;;;;;;8.90;4.00;;;;;;;16.22;43.01;100225.52;134085;1300;22375;-74
2023/05/10 06:39:59;;;;;;;8.50;4.60;;;;;;;16.12;41.63;100222.13;134240;1301;23747;-74
2023/05/10 06:43:45;;;;;;;;;;;;;;;;;;;;;
2023/05/10 06:46:46;;;;;;;5.70;3.70;;;;;;;16.67;43.03;100217.73;134056;1297;23040;-75
2023/05/10 06:49:47;;;;;;;5.70;3.90;;;;;;;16.79;41.28;100216.04;134258;1297;22402;-75
2023/05/10 06:52:48;;;;;;;8.20;3.70;;;;;;;16.69;41.83;100214.86;134111;1299;23097;-74
2023/05/10 06:56:13;;;;;;;4.80;3.60;;;;;;;16.89;42.05;100212.39;134232;1297;22374;-74
2023/05/10 07:00:10;;;;;;;;;;;;;;;;;;;;;
2023/05/10 07:06:57;;;;;;;8.70;3.50;;;;;;;17.51;41.96;100207.58;134232;1297;22388;-75
2023/05/10 07:10:52;;;;;;;7.60;3.40;;;;;;;17.45;40.82;100207.36;134184;1297;22427;-75
2023/05/10 07:14:17;;;;;;;5.10;3.30;;;;;;;17.38;40.65;100200.18;134042;1298;22250;-75
2023/05/10 07:17:51;;;;;;;5.40;3.60;;;;;;;17.24;39.87;100201.03;134189;1297;22298;-75
2023/05/10 07:21:16;;;;;;;4.90;3.70;;;;;;;17.25;40.73;100202.92;134127;1297;22476;-76
2023/05/10 07:24:19;;;;;;;5.30;3.10;;;;;;;17.41;40.87;100200.39;134118;1297;22861;-75
2023/05/10 07:27:22;;;;;;;5.90;3.60;;;;;;;17.54;40.05;100192.18;134200;1297;22478;-75
2023/05/10 07:30:23;;;;;;;5.20;3.20;;;;;;;17.60;40.65;100195.72;134227;1297;22363;-75
2023/05/10 07:34:16;;;;;;;;;;;;;;;;;;;;;
2023/05/10 07:37:40;;;;;;;5.20;3.30;;;;;;;17.96;40.08;100184.31;134001;1305;22970;-77
2023/05/10 07:41:34;;;;;;;4.30;3.20;;;;;;;18.12;40.05;100180.23;134200;1304;22497;-75
2023/05/10 07:45:30;;;;;;;4.10;3.10;;;;;;;18.21;40.46;100183.89;134183;1297;23191;-75
2023/05/10 07:49:23;;;;;;;4.70;3.10;;;;;;;18.27;40.20;100181.39;134000;1297;23029;-75
2023/05/10 07:52:43;;;;;;;;;;;;;;;;;;;;;
2023/05/10 07:56:40;;;;;;;;;;;;;;;;;;;;;
2023/05/10 08:00:02;;;;;;;5.30;2.90;;;;;;;18.72;40.45;100169.77;133958;1297;22253;-76
2023/05/10 08:03:18;;;;;;;5.00;3.00;;;;;;;18.67;40.26;100179.67;134213;1297;22161;-75
2023/05/10 08:06:28;;;;;;;10.00;3.60;;;;;;;18.56;40.13;100172.92;134176;1297;23047;-77
2023/05/10 08:10:23;;;;;;;;;;;;;;;;;;;;;
2023/05/10 08:13:54;;;;;;;5.70;3.70;;;;;;;18.67;40.48;100168.66;134151;1297;22956;-76
2023/05/10 08:18:41;;;;;;;6.00;3.50;;;;;;;18.81;40.43;100168.38;134053;1298;22504;-76
2023/05/10 08:22:28;;;;;;;5.10;3.40;;;;;;;18.85;39.84;100162.98;134061;1297;22451;-76
2023/05/10 08:29:49;;;;;;;4.70;3.40;;;;;;;18.90;39.67;100157.89;133748;1297;23004;-71
2023/05/10 08:32:53;;;;;;;4.70;3.00;;;;;;;18.89;40.45;100160.05;134234;1297;22423;-72
2023/05/10 08:40:18;;;;;;;7.10;3.40;;;;;;;19.18;40.77;100155.75;134018;1298;22438;-73
2023/05/10 08:44:36;;;;;;;5.30;3.90;;;;;;;19.19;39.95;100159.34;134131;1297;25771;-73
2023/05/10 08:48:14;;;;;;;5.10;3.10;;;;;;;19.28;40.50;100156.11;134101;1297;22439;-73
2023/05/10 08:51:47;;;;;;;5.30;3.30;;;;;;;19.70;40.93;100153.84;134173;1297;23324;-72
2023/05/10 08:55:32;;;;;;;;;;;;;;;;;;;;;
2023/05/10 08:59:21;;;;;;;;;;;;;;;;;;;;;
2023/05/10 09:11:35;;;;;;;;;;;;;;;;;;;;;
2023/05/10 09:20:14;;;;;;;4.90;3.40;;;;;;;19.59;38.39;100142.16;134157;1297;22344;-72
2023/05/10 09:28:08;;;;;;;4.30;3.20;;;;;;;19.86;38.11;100144.99;134184;1298;22524;-72
2023/05/10 09:31:51;;;;;;;;;;;;;;;;;;;;;
2023/05/10 09:35:39;;;;;;;5.20;3.40;;;;;;;19.86;38.13;100148.51;134201;1297;22430;-72
2023/05/10 09:39:09;;;;;;;6.80;3.50;;;;;;;20.03;38.07;100154.83;134233;1297;22402;-72
2023/05/10 09:50:59;;;;;;;5.30;3.00;;;;;;;19.10;38.33;100159.93;134016;1297;22408;-72
2023/05/10 09:58:06;;;;;;;4.20;3.00;;;;;;;19.57;39.28;100152.91;134178;1297;23211;-73
2023/05/10 10:01:32;;;;;;;4.80;3.40;;;;;;;19.30;38.56;100148.27;134210;1298;24469;-72
2023/05/10 10:05:03;;;;;;;16.70;3.50;;;;;;;19.36;38.50;100144.27;134187;1297;22453;-72
2023/05/10 10:08:20;;;;;;;3.80;2.80;;;;;;;19.40;37.27;100139.72;134220;1305;22404;-74
2023/05/10 10:11:23;;;;;;;5.30;3.40;;;;;;;19.21;37.70;100143.03;133958;1301;22796;-72
2023/05/10 10:14:50;;;;;;;7.60;3.30;;;;;;;19.11;38.13;100140.19;134233;1298;22251;-71
2023/05/10 10:18:11;;;;;;;;;;;;;;;;;;;;;
2023/05/10 10:21:29;;;;;;;8.30;3.90;;;;;;;19.59;37.88;100128.45;134108;1297;22457;-72
2023/05/10 10:28:52;;;;;;;4.00;3.00;;;;;;;19.45;37.38;100125.33;134176;1298;22470;-71
2023/05/10 10:32:21;;;;;;;2.70;2.20;;;;;;;19.50;37.70;100126.94;134232;1297;22359;-71
2023/05/10 10:35:40;;;;;;;5.00;2.90;;;;;;;19.47;37.16;100122.66;133945;1298;22559;-72
2023/05/10 10:39:26;;;;;;;3.50;2.80;;;;;;;19.80;36.91;100124.67;134246;1294;22353;-71
2023/05/10 10:42:45;;;;;;;5.70;3.10;;;;;;;19.88;36.42;100128.95;134217;1305;23029;-72
2023/05/10 10:46:20;;;;;;;4.80;2.80;;;;;;;19.85;36.54;100119.45;134159;1298;22385;-72
2023/05/10 10:49:41;;;;;;;6.40;2.80;;;;;;;20.03;36.36;100120.25;134206;1298;23688;-73
2023/05/10 10:52:55;;;;;;;3.10;2.80;;;;;;;20.06;35.93;100121.89;134106;1298;23073;-72
2023/05/10 10:57:00;;;;;;;8.30;3.50;;;;;;;20.09;35.58;100116.63;134200;1297;23263;-72
2023/05/10 11:00:19;;;;;;;8.70;3.10;;;;;;;19.80;35.78;100111.60;134040;1298;22487;-73
2023/05/10 11:04:08;;;;;;;4.70;3.10;;;;;;;19.91;36.37;100107.77;134067;1301;22173;-72
2023/05/10 11:11:09;;;;;;;3.20;2.90;;;;;;;20.59;36.67;100117.14;134177;1298;22454;-75
2023/05/10 11:14:30;;;;;;;9.80;3.10;;;;;;;20.38;36.15;100109.23;134073;1298;22453;-72
2023/05/10 11:17:57;;;;;;;5.30;3.50;;;;;;;19.85;36.90;100112.12;134177;1298;23019;-72
2023/05/10 11:21:23;;;;;;;6.20;3.20;;;;;;;19.95;37.24;100112.81;134205;1297;22369;-72
2023/05/10 11:25:05;;;;;;;3.80;3.10;;;;;;;19.87;37.04;100115.23;134147;1298;22501;-72
2023/05/10 11:28:44;;;;;;;;;;;;;;;;;;;;;
2023/05/10 11:32:07;;;;;;;;;;;;;;;;;;;;;
2023/05/10 11:39:45;;;;;;;5.70;3.60;;;;;;;19.66;39.46;100109.63;133608;1304;22197;-72
2023/05/10 11:51:46;;;;;;;;;;;;;;;;;;;;;
2023/05/10 11:55:21;;;;;;;3.50;2.40;;;;;;;20.26;38.64;100099.08;133629;1304;22356;-72
2023/05/10 11:58:48;;;;;;;5.10;2.80;;;;;;;20.13;37.63;100094.79;133883;1298;22442;-72
2023/05/10 12:02:09;;;;;;;4.20;2.60;;;;;;;20.25;37.52;100097.38;134193;1297;22216;-75
2023/05/10 12:05:24;;;;;;;;;;;;;;;;;;;;;
2023/05/10 12:09:27;;;;;;;4.20;2.60;;;;;;;20.30;36.82;100099.73;134184;1298;22651;-72
2023/05/10 12:12:52;;;;;;;3.00;2.00;;;;;;;20.26;37.39;100105.98;134199;1298;22132;-72
2023/05/10 12:17:08;;;;;;;2.90;2.30;;;;;;;20.40;37.05;100096.73;134071;1298;22389;-72
2023/05/10 12:20:39;;;;;;;8.90;2.50;;;;;;;20.43;37.55;100100.58;133908;1298;22160;-72
2023/05/10 12:24:23;;;;;;;;;;;;;;;;;;;;;
2023/05/10 12:32:47;;;;;;;2.80;2.50;;;;;;;19.66;37.73;100101.46;133709;1305;22229;-73
2023/05/10 12:36:58;;;;;;;2.30;2.10;;;;;;;19.75;37.93;100095.01;134020;1298;22233;-72
2023/05/10 12:40:19;;;;;;;5.80;2.60;;;;;;;20.02;37.92;100099.95;133985;1297;22376;-72
2023/05/10 12:43:56;;;;;;;;;;;;;;;;;;;;;
2023/05/10 12:47:18;;;;;;;3.10;2.40;;;;;;;20.20;36.26;100087.71;134071;1291;22445;-71
2023/05/10 12:50:34;;;;;;;3.10;2.10;;;;;;;19.99;36.88;100089.92;134170;1304;22367;-73
2023/05/10 12:53:39;;;;;;;5.40;2.70;;;;;;;19.91;37.11;100094.52;133934;1298;22389;-72
2023/05/10 12:56:52;;;;;;;4.10;2.80;;;;;;;19.59;37.31;100097.77;133874;1299;22368;-72
2023/05/10 13:00:05;;;;;;;5.60;2.80;;;;;;;19.34;37.38;100101.51;134203;1297;22230;-72
2023/05/10 13:03:51;;;;;;;3.20;2.40;;;;;;;19.37;37.30;100093.88;134158;1298;22436;-72
2023/05/10 13:07:14;;;;;;;6.30;2.30;;;;;;;19.81;37.69;100089.49;133915;1298;23266;-71
2023/05/10 13:14:24;;;;;;;3.30;2.30;;;;;;;20.22;35.67;100080.27;134048;1298;22899;-73
2023/05/10 13:18:46;;;;;;;4.80;2.20;;;;;;;20.32;35.80;100083.27;134173;1298;22280;-72
2023/05/10 13:26:15;;;;;;;3.60;2.20;;;;;;;20.09;35.41;100080.17;133883;1297;22449;-72
2023/05/10 13:29:42;;;;;;;9.20;3.20;;;;;;;20.10;35.40;100073.58;134098;1298;23438;-72
2023/05/10 13:33:23;;;;;;;6.80;2.50;;;;;;;20.27;35.43;100074.59;134143;1298;22245;-73
2023/05/10 13:37:21;;;;;;;2.80;2.40;;;;;;;20.05;33.81;100074.84;134120;1298;23352;-71
2023/05/10 13:40:40;;;;;;;;;;;;;;;;;;;;;
2023/05/10 13:44:39;;;;;;;;;;;;;;;;;;;;;
2023/05/10 13:48:31;;;;;;;4.90;2.10;;;;;;;19.67;34.47;100064.98;133872;1298;22355;-72
2023/05/10 13:52:16;;;;;;;;;;;;;;;;;;;;;
2023/05/10 13:56:41;;;;;;;5.00;2.50;;;;;;;19.79;34.91;100057.40;134198;1299;22213;-73
2023/05/10 13:59:31;;;;;;;2.60;1.90;;;;;;;19.69;33.84;100055.52;134051;1298;22359;-71
2023/05/10 14:02:52;;;;;;;4.10;2.20;;;;;;;19.50;34.51;100056.93;134203;1301;23355;-72
2023/05/10 14:07:30;;;;;;;5.20;2.90;;;;;;;19.45;35.47;100051.08;134211;1305;22492;-71
2023/05/10 14:10:28;;;;;;;3.10;2.40;;;;;;;19.58;35.99;100048.42;134132;1298;22427;-73
2023/05/10 14:13:29;;;;;;;2.80;2.50;;;;;;;19.58;36.35;100046.85;134216;1301;22363;-72
2023/05/10 14:17:07;;;;;;;;;;;;;;;;;;;;;
2023/05/10 14:20:22;;;;;;;2.70;2.30;;;;;;;19.61;36.46;100045.86;134089;1298;22917;-74
2023/05/10 14:23:43;;;;;;;4.40;2.90;;;;;;;19.40;36.06;100042.37;134177;1298;22405;-74
2023/05/10 14:26:58;;;;;;;2.70;2.40;;;;;;;19.27;36.41;100038.79;134186;1298;22447;-72
2023/05/10 14:30:13;;;;;;;2.70;2.30;;;;;;;19.33;36.60;100040.73;134196;1299;22382;-72
2023/05/10 14:33:23;;;;;;;4.00;2.40;;;;;;;19.32;36.81;100038.59;134212;1298;22378;-72
2023/05/10 14:36:28;;;;;;;7.10;2.50;;;;;;;19.33;36.05;100034.86;134173;1298;22390;-72
2023/05/10 14:40:02;;;;;;;;;;;;;;;;;;;;;
2023/05/10 14:43:26;;;;;;;5.40;2.90;;;;;;;19.57;36.95;100030.46;134176;1298;22398;-72
2023/05/10 14:47:20;;;;;;;4.60;2.30;;;;;;;19.58;36.58;100033.30;134203;1297;22161;-72
2023/05/10 14:50:52;;;;;;;;;;;;;;;;;;;;;
2023/05/10 14:54:25;;;;;;;7.50;3.20;;;;;;;19.32;37.25;100037.21;134159;1305;22366;-72
2023/05/10 14:57:29;;;;;;;3.50;2.40;;;;;;;19.40;37.69;100037.04;134208;1298;22349;-72
2023/05/10 15:00:35;;;;;;;5.40;2.50;;;;;;;19.37;37.38;100039.59;134218;1305;22353;-72
2023/05/10 15:03:42;;;;;;;3.40;2.60;;;;;;;19.35;37.49;100034.61;134215;1305;22440;-72
2023/05/10 15:07:17;;;;;;;;;;;;;;;;;;;;;
2023/05/10 15:10:43;;;;;;;3.90;2.60;;;;;;;19.41;37.10;100041.66;134150;1298;22562;-72
2023/05/10 15:14:35;;;;;;;;;;;;;;;;;;;;;
2023/05/10 15:18:14;;;;;;;3.20;2.30;;;;;;;19.09;37.36;100044.23;133956;1298;22513;-72
2023/05/10 15:25:05;;;;;;;4.80;3.00;;;;;;;18.86;37.60;100040.80;134203;1298;22411;-72
2023/05/10 15:28:06;;;;;;;4.40;2.50;;;;;;;18.89;38.14;100042.84;134208;1297;22354;-72
2023/05/10 15:31:31;;;;;;;3.90;3.50;;;;;;;19.00;38.17;100037.59;134208;1301;22323;-72
2023/05/10 15:34:55;;;;;;;6.80;3.70;;;;;;;19.13;37.75;100037.27;134104;1298;22852;-72
2023/05/10 15:37:56;;;;;;;5.20;4.10;;;;;;;19.29;37.48;100037.75;134211;1298;23315;-72
2023/05/10 15:41:17;;;;;;;4.60;2.70;;;;;;;19.34;37.55;100037.36;134232;1298;22378;-72
2023/05/10 15:44:50;;;;;;;5.50;3.00;;;;;;;19.33;37.82;100035.50;134195;1298;22402;-72
2023/05/10 15:51:51;;;;;;;6.40;2.60;;;;;;;19.29;37.33;100038.60;134211;1298;22378;-72
2023/05/10 15:55:25;;;;;;;;;;;;;;;;;;;;;
2023/05/10 15:58:35;;;;;;;8.30;3.30;;;;;;;18.97;37.13;100040.72;134222;1297;22466;-72
2023/05/10 16:02:30;;;;;;;5.80;4.60;;;;;;;18.88;37.26;100041.31;134087;1298;22488;-71
2023/05/10 16:06:21;;;;;;;;;;;;;;;;;;;;;
2023/05/10 16:09:33;;;;;;;;;;;;;;;;;;;;;
2023/05/10 16:12:38;;;;;;;12.40;8.50;;;;;;;18.74;38.18;100051.45;134181;1298;22425;-72
2023/05/10 16:15:51;;;;;;;10.00;6.40;;;;;;;18.74;38.16;100054.96;134024;1294;22323;-71
2023/05/10 16:19:26;;;;;;;;;;;;;;;;;;;;;
2023/05/10 16:22:44;;;;;;;5.10;3.40;;;;;;;18.80;38.04;100054.13;134205;1298;22365;-71
2023/05/10 16:25:45;;;;;;;3.90;3.30;;;;;;;18.79;38.31;100049.92;134197;1298;22376;-72
2023/05/10 16:28:53;;;;;;;3.70;2.80;;;;;;;18.77;38.06;100050.93;134230;1298;22347;-70
2023/05/10 16:32:01;;;;;;;7.30;4.10;;;;;;;18.77;38.04;100054.73;134178;1302;23241;-71
2023/05/10 16:35:18;;;;;;;3.60;2.50;;;;;;;18.77;38.41;100054.31;134207;1305;23220;-70
2023/05/10 16:38:51;;;;;;;3.10;2.80;;;;;;;18.80;38.46;100050.38;134186;1298;22220;-70
2023/05/10 16:42:12;;;;;;;3.90;2.60;;;;;;;18.87;38.20;100050.84;134173;1298;22396;-71
2023/05/10 16:45:35;;;;;;;;;;;;;;;;;;;;;
2023/05/10 16:49:06;;;;;;;5.20;3.50;;;;;;;18.76;38.06;100057.54;134204;1298;23260;-70
2023/05/10 16:52:23;;;;;;;;;;;;;;;;;;;;;
2023/05/10 16:55:31;;;;;;;10.20;7.80;;;;;;;18.53;38.22;100060.84;134199;1305;22347;-71
2023/05/10 16:58:38;;;;;;;14.30;10.30;;;;;;;18.45;38.35;100062.61;134200;1298;22403;-70
2023/05/10 17:02:10;;;;;;;6.60;3.40;;;;;;;18.38;38.55;100063.16;134209;1297;23413;-69
2023/05/10 17:05:59;;;;;;;;;;;;;;;;;;;;;
2023/05/10 17:09:23;;;;;;;;;;;;;;;18.12;38.73;100073.11;134223;1298;22538;-70
2023/05/10 17:12:35;;;;;;;6.10;2.70;;;;;;;18.02;38.90;100076.52;134203;1298;22427;-71
2023/05/10 17:16:00;;;;;;;3.50;2.40;;;;;;;17.93;39.01;100075.25;134209;1304;22120;-71
2023/05/10 17:19:19;;;;;;;;;;;;;;;;;;;;;
2023/05/10 17:23:15;;;;;;;;;;;;;;;;;;;;;
2023/05/10 17:26:59;;;;;;;4.40;2.60;;;;;;;17.62;39.64;100085.14;134238;1297;22230;-69
2023/05/10 17:30:27;;;;;;;6.90;2.90;;;;;;;17.55;39.82;100084.02;134190;1298;22141;-70
2023/05/10 17:34:01;;;;;;;4.00;3.00;;;;;;;17.51;40.14;100088.10;134101;1297;22945;-73
2023/05/10 17:37:37;;;;;;;4.20;3.00;;;;;;;17.50;40.09;100091.54;134217;1305;22400;-71
2023/05/10 17:41:05;;;;;;;6.60;3.70;;;;;;;17.50;40.27;100091.63;134188;1297;22239;-73
2023/05/10 17:44:16;;;;;;;8.60;4.00;;;;;;;17.49;40.41;100093.04;134075;1305;22411;-71
2023/05/10 17:47:34;;;;;;;6.90;3.40;;;;;;;17.46;40.47;100095.31;134143;1298;23033;-70
2023/05/10 17:50:51;;;;;;;4.50;3.00;;;;;;;17.45;40.68;100096.95;134100;1297;23113;-70
2023/05/10 17:54:06;;;;;;;3.90;3.20;;;;;;;17.43;40.70;100094.79;134084;1297;22903;-70
2023/05/10 17:57:41;;;;;;;;;;;;;;;;;;;;;
2023/05/10 18:01:04;;;;;;;4.10;3.30;;;;;;;17.31;40.85;100102.34;134118;1298;22446;-70
2023/05/10 18:04:49;;;;;;;7.30;3.10;;;;;;;17.24;40.96;100109.33;134134;1298;22365;-70
2023/05/10 18:08:03;;;;;;;3.90;3.40;;;;;;;17.15;41.14;100107.83;134148;1298;22411;-71
2023/05/10 18:11:28;;;;;;;6.50;3.10;;;;;;;17.09;41.20;100110.15;133894;1298;22373;-70
2023/05/10 18:14:35;;;;;;;4.80;2.80;;;;;;;17.00;41.31;100111.15;134145;1298;23274;-70
2023/05/10 18:17:38;;;;;;;5.90;2.60;;;;;;;16.88;41.52;100109.27;134093;1291;22382;-71
2023/05/10 18:21:29;;;;;;;;;;;;;;;;;;;;;
2023/05/10 18:24:45;;;;;;;6.50;3.50;;;;;;;16.68;41.67;100115.48;134177;1297;22378;-73
2023/05/10 18:27:49;;;;;;;9.80;3.70;;;;;;;16.60;41.81;100118.41;134247;1297;22380;-69
2023/05/10 18:31:04;;;;;;;;;;;;;;;;;;;;;
2023/05/10 18:34:12;;;;;;;4.90;3.90;;;;;;;16.15;42.87;100131.79;134090;1283;22647;-73
2023/05/10 18:37:14;;;;;;;5.10;3.70;;;;;;;15.84;43.41;100138.82;134165;1297;23096;-70
2023/05/10 18:40:17;;;;;;;8.30;4.30;;;;;;;15.59;43.78;100140.14;134240;1298;22257;-73
2023/05/10 18:43:18;;;;;;;5.40;3.70;;;;;;;15.41;44.25;100146.63;134052;1301;22420;-69